»·PEaware :: N719CP KSMX-KBFL

N719CP :: KSMX-KBFL

FLIGHT INFORMATION

Flight Status: Arrived
Operator: Privately registered:
United States
More flights under this callsign
Pilot: Jacob V. (20481)
Aircraft: CESSNA 172 SKYHAWK
(C172)
More flights by this aircraft type
Origin: KSMX Santa Maria Pub/Capt Hancock
United States
Destination: KBFL Meadows
United States
More flights between these airports :: More routes between these airports
Route:
File this flight plan on PilotEdge
Remarks: CAT-5 Rating / N719PC
Altitude:
(Current/Filed)
7,500ft
Speed:
(Current/Filed)
115kts
Departed: 21-Sep-18 10:05 PM
Arrived: 21-Sep-18 10:55 PM
Distance/Time
Traveled:
76nm/0:50
Distance/Time
To Go:
Arrived

Flight Plot

Page will automatically refresh every two minutes.


Map Options




Map Legend


Flown Route
Filed Route
Departure Airport
Arrival Airport
Navaid (VOR, NDB)
Fix

Horizontal Profiles

Position Reports

Time Latitude Longitude Heading Altitude Ground
Speed
21-Sep-18 21:53 34.898663 -120.448800 166 265ft 0kts
21-Sep-18 21:54 34.898663 -120.448800 166 265ft 0kts
21-Sep-18 21:55 34.898663 -120.448800 166 265ft 0kts
21-Sep-18 21:56 34.898663 -120.448800 166 265ft 0kts
21-Sep-18 21:57 34.898663 -120.448800 166 265ft 0kts
21-Sep-18 21:58 34.898663 -120.448800 166 265ft 0kts
21-Sep-18 21:59 34.898663 -120.448800 166 265ft 0kts
21-Sep-18 22:00 34.897524 -120.448522 224 265ft 8kts
21-Sep-18 22:01 34.894551 -120.445402 134 265ft 13kts
21-Sep-18 22:02 34.893254 -120.444966 182 265ft 0kts
21-Sep-18 22:03 34.893254 -120.444966 182 265ft 0kts
21-Sep-18 22:04 34.893254 -120.444966 182 265ft 0kts
21-Sep-18 22:05 34.893254 -120.444966 182 265ft 0kts
21-Sep-18 22:06 34.892712 -120.445266 234 265ft 14kts
21-Sep-18 22:07 34.899024 -120.452905 316 438ft 81kts
21-Sep-18 22:08 34.915509 -120.456913 67 1355ft 78kts
21-Sep-18 22:09 34.920639 -120.431176 83 2190ft 80kts
21-Sep-18 22:10 34.923946 -120.404606 73 2969ft 81kts
21-Sep-18 22:11 34.929243 -120.383181 68 3598ft 80kts
21-Sep-18 22:12 34.940663 -120.354616 59 4414ft 80kts
21-Sep-18 22:13 34.947803 -120.333750 74 4955ft 81kts
21-Sep-18 22:14 34.952971 -120.302272 81 5668ft 82kts
21-Sep-18 22:15 34.956416 -120.279398 69 6164ft 81kts
21-Sep-18 22:16 34.964621 -120.253278 72 6704ft 83kts
21-Sep-18 22:17 34.972147 -120.221951 69 7315ft 83kts
21-Sep-18 22:18 34.980092 -120.199661 62 7584ft 98kts
21-Sep-18 22:19 34.995666 -120.160021 65 7516ft 106kts
21-Sep-18 22:20 35.005206 -120.133361 66 7517ft 100kts
21-Sep-18 22:21 35.016040 -120.101962 67 7518ft 105kts
21-Sep-18 22:22 35.027568 -120.067680 67 7517ft 111kts
21-Sep-18 22:23 35.039225 -120.032541 67 7517ft 112kts
21-Sep-18 22:24 35.050839 -119.997223 67 7495ft 114kts
21-Sep-18 22:25 35.062425 -119.961738 68 7434ft 109kts
21-Sep-18 22:26 35.073488 -119.927824 68 7435ft 106kts
21-Sep-18 22:27 35.084412 -119.894287 68 7435ft 106kts
21-Sep-18 22:28 35.095230 -119.860962 68 7435ft 105kts
21-Sep-18 22:29 35.106632 -119.828163 66 7435ft 105kts
21-Sep-18 22:30 35.119674 -119.795843 64 7435ft 106kts
21-Sep-18 22:31 35.132166 -119.763580 64 7435ft 105kts
21-Sep-18 22:32 35.144056 -119.731133 65 7435ft 104kts
21-Sep-18 22:33 35.156104 -119.698660 65 7435ft 105kts
21-Sep-18 22:34 35.168190 -119.666184 65 7435ft 104kts
21-Sep-18 22:35 35.180250 -119.633815 65 7435ft 105kts
21-Sep-18 22:36 35.192342 -119.601364 65 7472ft 100kts
21-Sep-18 22:37 35.203872 -119.570421 65 7508ft 101kts
21-Sep-18 22:38 35.216611 -119.536393 64 7508ft 118kts
21-Sep-18 22:39 35.230365 -119.499525 64 7508ft 119kts
21-Sep-18 22:40 35.244126 -119.462502 64 7508ft 119kts
21-Sep-18 22:41 35.256930 -119.427705 65 7284ft 100kts
21-Sep-18 22:42 35.268776 -119.395650 65 6918ft 117kts
21-Sep-18 22:43 35.282859 -119.357471 65 6421ft 127kts
21-Sep-18 22:44 35.297394 -119.318020 65 5918ft 128kts
21-Sep-18 22:45 35.312959 -119.278173 63 5320ft 131kts
21-Sep-18 22:46 35.331371 -119.239922 56 4720ft 131kts
21-Sep-18 22:47 35.351439 -119.202816 56 4120ft 131kts
21-Sep-18 22:48 35.368277 -119.171664 56 3510ft 90kts
21-Sep-18 22:49 35.381017 -119.148127 56 2906ft 79kts
21-Sep-18 22:50 35.393382 -119.126245 52 2301ft 78kts
21-Sep-18 22:51 35.406969 -119.104272 53 1811ft 86kts
21-Sep-18 22:52 35.422830 -119.077641 55 1490ft 96kts
21-Sep-18 22:53 35.414571 -119.056592 137 1445ft 75kts
21-Sep-18 22:54 35.403315 -119.037768 51 1460ft 75kts
21-Sep-18 22:55 35.418956 -119.038341 313 959ft 64kts
21-Sep-18 22:56 35.431819 -119.053823 315 525ft 62kts
21-Sep-18 22:57 35.436290 -119.057660 78 492ft 0kts
21-Sep-18 22:58 35.436290 -119.057660 78 492ft 0kts
21-Sep-18 22:59 35.435893 -119.055250 36 496ft 13kts
21-Sep-18 23:00 35.436565 -119.054372 45 500ft 0kts

Navigation Log

Ident Type
1. KSMX Airport
2. KBFL Airport